sensor_id;sensor_type;location;lat;lon;timestamp;temperature;humidity
5415;DHT22;2730;51.512;7.504;2024-02-28T00:00:19;0.10;1.00
5415;DHT22;2730;51.512;7.504;2024-02-28T00:02:46;0.10;1.00
5415;DHT22;2730;51.512;7.504;2024-02-28T00:05:13;0.10;1.00
5415;DHT22;2730;51.512;7.504;2024-02-28T00:07:39;0.20;1.00
5415;DHT22;2730;51.512;7.504;2024-02-28T00:10:07;0.10;1.00
5415;DHT22;2730;51.512;7.504;2024-02-28T00:12:35;0.10;1.00
5415;DHT22;2730;51.512;7.504;2024-02-28T00:15:05;0.10;1.00
5415;DHT22;2730;51.512;7.504;2024-02-28T00:17:38;0.00;1.00
5415;DHT22;2730;51.512;7.504;2024-02-28T00:20:06;0.00;1.00
5415;DHT22;2730;51.512;7.504;2024-02-28T00:22:35;0.00;1.00
5415;DHT22;2730;51.512;7.504;2024-02-28T00:25:06;0.10;1.00
5415;DHT22;2730;51.512;7.504;2024-02-28T00:27:36;0.00;1.00
5415;DHT22;2730;51.512;7.504;2024-02-28T00:30:05;0.00;1.00
5415;DHT22;2730;51.512;7.504;2024-02-28T00:32:32;-0.10;1.00
5415;DHT22;2730;51.512;7.504;2024-02-28T00:35:00;-0.10;1.00
5415;DHT22;2730;51.512;7.504;2024-02-28T00:37:28;-0.10;1.00
5415;DHT22;2730;51.512;7.504;2024-02-28T00:39:57;-0.10;1.00
5415;DHT22;2730;51.512;7.504;2024-02-28T00:42:28;-0.10;1.00
5415;DHT22;2730;51.512;7.504;2024-02-28T00:44:54;0.10;1.00
5415;DHT22;2730;51.512;7.504;2024-02-28T00:47:21;0.10;1.00
5415;DHT22;2730;51.512;7.504;2024-02-28T00:49:49;0.10;1.00
5415;DHT22;2730;51.512;7.504;2024-02-28T00:52:19;0.10;1.00
5415;DHT22;2730;51.512;7.504;2024-02-28T00:54:46;0.10;1.00
5415;DHT22;2730;51.512;7.504;2024-02-28T00:57:14;0.10;1.00
5415;DHT22;2730;51.512;7.504;2024-02-28T00:59:40;0.10;1.00
5415;DHT22;2730;51.512;7.504;2024-02-28T01:02:08;0.00;1.00
5415;DHT22;2730;51.512;7.504;2024-02-28T01:04:35;0.00;1.00
5415;DHT22;2730;51.512;7.504;2024-02-28T01:07:02;0.00;1.00
5415;DHT22;2730;51.512;7.504;2024-02-28T01:09:30;0.00;1.00
5415;DHT22;2730;51.512;7.504;2024-02-28T01:11:57;-0.10;1.00
5415;DHT22;2730;51.512;7.504;2024-02-28T01:14:26;-0.10;1.00
5415;DHT22;2730;51.512;7.504;2024-02-28T01:16:56;-0.10;1.00
5415;DHT22;2730;51.512;7.504;2024-02-28T01:19:25;-0.10;1.00
5415;DHT22;2730;51.512;7.504;2024-02-28T01:21:52;-0.10;1.00
5415;DHT22;2730;51.512;7.504;2024-02-28T01:24:20;-0.20;1.00
5415;DHT22;2730;51.512;7.504;2024-02-28T01:26:51;-0.10;1.00
5415;DHT22;2730;51.512;7.504;2024-02-28T01:29:19;-0.20;1.00
5415;DHT22;2730;51.512;7.504;2024-02-28T01:31:45;-0.10;1.00
5415;DHT22;2730;51.512;7.504;2024-02-28T01:34:12;0.00;1.00
5415;DHT22;2730;51.512;7.504;2024-02-28T01:36:39;0.00;1.00
5415;DHT22;2730;51.512;7.504;2024-02-28T01:39:08;0.10;1.00
5415;DHT22;2730;51.512;7.504;2024-02-28T01:41:36;0.10;1.00
5415;DHT22;2730;51.512;7.504;2024-02-28T01:44:04;0.10;1.00
5415;DHT22;2730;51.512;7.504;2024-02-28T01:46:31;0.10;1.00
5415;DHT22;2730;51.512;7.504;2024-02-28T01:48:58;0.10;1.00
5415;DHT22;2730;51.512;7.504;2024-02-28T01:51:26;0.10;1.00
5415;DHT22;2730;51.512;7.504;2024-02-28T01:53:54;0.10;1.00
5415;DHT22;2730;51.512;7.504;2024-02-28T01:56:23;0.10;1.00
5415;DHT22;2730;51.512;7.504;2024-02-28T01:58:52;0.10;1.00
5415;DHT22;2730;51.512;7.504;2024-02-28T02:01:22;0.10;1.00
5415;DHT22;2730;51.512;7.504;2024-02-28T02:03:49;0.10;1.00
5415;DHT22;2730;51.512;7.504;2024-02-28T02:06:16;0.10;1.00
5415;DHT22;2730;51.512;7.504;2024-02-28T02:08:45;0.20;1.00
5415;DHT22;2730;51.512;7.504;2024-02-28T02:11:16;0.20;1.00
5415;DHT22;2730;51.512;7.504;2024-02-28T02:13:49;0.20;1.00
5415;DHT22;2730;51.512;7.504;2024-02-28T02:16:17;0.30;1.00
5415;DHT22;2730;51.512;7.504;2024-02-28T02:18:50;0.30;1.00
5415;DHT22;2730;51.512;7.504;2024-02-28T02:21:19;0.30;1.00
5415;DHT22;2730;51.512;7.504;2024-02-28T02:23:53;0.20;1.00
5415;DHT22;2730;51.512;7.504;2024-02-28T02:26:20;0.20;1.00
5415;DHT22;2730;51.512;7.504;2024-02-28T02:28:48;0.20;1.00
5415;DHT22;2730;51.512;7.504;2024-02-28T02:31:14;0.20;1.00
5415;DHT22;2730;51.512;7.504;2024-02-28T02:33:41;0.20;1.00
5415;DHT22;2730;51.512;7.504;2024-02-28T02:36:09;0.20;1.00
5415;DHT22;2730;51.512;7.504;2024-02-28T02:38:37;0.20;1.00
5415;DHT22;2730;51.512;7.504;2024-02-28T02:41:05;0.30;1.00
5415;DHT22;2730;51.512;7.504;2024-02-28T02:43:34;0.20;1.00
5415;DHT22;2730;51.512;7.504;2024-02-28T02:46:04;0.30;1.30
5415;DHT22;2730;51.512;7.504;2024-02-28T02:48:32;0.30;2.00
5415;DHT22;2730;51.512;7.504;2024-02-28T02:50:59;0.30;1.80
5415;DHT22;2730;51.512;7.504;2024-02-28T02:53:26;0.20;1.00
5415;DHT22;2730;51.512;7.504;2024-02-28T02:55:54;0.20;1.00
5415;DHT22;2730;51.512;7.504;2024-02-28T02:58:23;0.20;1.00
5415;DHT22;2730;51.512;7.504;2024-02-28T03:00:51;0.10;1.00
5415;DHT22;2730;51.512;7.504;2024-02-28T03:03:18;0.10;1.00
5415;DHT22;2730;51.512;7.504;2024-02-28T03:05:45;0.00;1.00
5415;DHT22;2730;51.512;7.504;2024-02-28T03:08:13;0.00;1.00
5415;DHT22;2730;51.512;7.504;2024-02-28T03:10:40;-0.10;1.00
5415;DHT22;2730;51.512;7.504;2024-02-28T03:13:07;0.00;1.00
5415;DHT22;2730;51.512;7.504;2024-02-28T03:15:35;0.00;1.00
5415;DHT22;2730;51.512;7.504;2024-02-28T03:18:03;0.10;1.00
5415;DHT22;2730;51.512;7.504;2024-02-28T03:20:30;0.20;1.00
5415;DHT22;2730;51.512;7.504;2024-02-28T03:23:03;0.40;6.80
5415;DHT22;2730;51.512;7.504;2024-02-28T03:25:31;0.50;11.60
5415;DHT22;2730;51.512;7.504;2024-02-28T03:27:59;0.70;15.90
5415;DHT22;2730;51.512;7.504;2024-02-28T03:30:35;0.80;19.70
5415;DHT22;2730;51.512;7.504;2024-02-28T03:33:03;0.90;23.40
5415;DHT22;2730;51.512;7.504;2024-02-28T03:35:29;1.10;26.60
5415;DHT22;2730;51.512;7.504;2024-02-28T03:37:58;1.20;29.40
5415;DHT22;2730;51.512;7.504;2024-02-28T03:40:26;1.20;32.10
5415;DHT22;2730;51.512;7.504;2024-02-28T03:42:53;1.30;33.40
5415;DHT22;2730;51.512;7.504;2024-02-28T03:45:20;1.40;36.50
5415;DHT22;2730;51.512;7.504;2024-02-28T03:47:52;1.50;39.00
5415;DHT22;2730;51.512;7.504;2024-02-28T03:50:18;1.40;37.40
5415;DHT22;2730;51.512;7.504;2024-02-28T03:52:46;1.30;33.80
5415;DHT22;2730;51.512;7.504;2024-02-28T03:55:16;1.40;34.30
5415;DHT22;2730;51.512;7.504;2024-02-28T03:57:47;1.40;34.90
5415;DHT22;2730;51.512;7.504;2024-02-28T04:00:15;1.40;34.10
5415;DHT22;2730;51.512;7.504;2024-02-28T04:02:42;1.30;32.60
5415;DHT22;2730;51.512;7.504;2024-02-28T04:05:12;1.30;32.20
5415;DHT22;2730;51.512;7.504;2024-02-28T04:07:43;1.40;33.60
5415;DHT22;2730;51.512;7.504;2024-02-28T04:10:11;1.30;32.90
5415;DHT22;2730;51.512;7.504;2024-02-28T04:12:37;1.40;33.80
5415;DHT22;2730;51.512;7.504;2024-02-28T04:15:05;1.40;33.30
5415;DHT22;2730;51.512;7.504;2024-02-28T04:17:32;1.30;31.20
5415;DHT22;2730;51.512;7.504;2024-02-28T04:20:02;1.40;34.20
5415;DHT22;2730;51.512;7.504;2024-02-28T04:22:31;1.40;35.80
5415;DHT22;2730;51.512;7.504;2024-02-28T04:24:58;1.40;33.50
5415;DHT22;2730;51.512;7.504;2024-02-28T04:27:25;1.40;35.50
5415;DHT22;2730;51.512;7.504;2024-02-28T04:29:51;1.40;35.20
5415;DHT22;2730;51.512;7.504;2024-02-28T04:32:18;1.40;34.60
5415;DHT22;2730;51.512;7.504;2024-02-28T04:34:53;1.40;34.90
5415;DHT22;2730;51.512;7.504;2024-02-28T04:37:24;1.50;38.30
5415;DHT22;2730;51.512;7.504;2024-02-28T04:39:57;1.50;38.20
5415;DHT22;2730;51.512;7.504;2024-02-28T04:42:26;1.50;35.80
5415;DHT22;2730;51.512;7.504;2024-02-28T04:44:53;1.50;36.40
5415;DHT22;2730;51.512;7.504;2024-02-28T04:47:20;1.50;36.40
5415;DHT22;2730;51.512;7.504;2024-02-28T04:49:49;1.50;37.50
5415;DHT22;2730;51.512;7.504;2024-02-28T04:52:16;1.50;36.10
5415;DHT22;2730;51.512;7.504;2024-02-28T04:54:43;1.50;37.90
5415;DHT22;2730;51.512;7.504;2024-02-28T04:57:11;1.60;40.50
5415;DHT22;2730;51.512;7.504;2024-02-28T04:59:38;1.60;41.00
5415;DHT22;2730;51.512;7.504;2024-02-28T05:02:06;1.70;43.30
5415;DHT22;2730;51.512;7.504;2024-02-28T05:04:33;1.70;44.70
5415;DHT22;2730;51.512;7.504;2024-02-28T05:06:59;1.70;43.20
5415;DHT22;2730;51.512;7.504;2024-02-28T05:09:28;1.70;44.30
5415;DHT22;2730;51.512;7.504;2024-02-28T05:11:56;1.70;44.00
5415;DHT22;2730;51.512;7.504;2024-02-28T05:14:25;1.70;43.90
5415;DHT22;2730;51.512;7.504;2024-02-28T05:16:52;1.70;40.70
5415;DHT22;2730;51.512;7.504;2024-02-28T05:19:19;1.70;40.50
5415;DHT22;2730;51.512;7.504;2024-02-28T05:21:46;1.80;40.80
5415;DHT22;2730;51.512;7.504;2024-02-28T05:24:13;1.70;36.60
5415;DHT22;2730;51.512;7.504;2024-02-28T05:26:40;1.80;36.10
5415;DHT22;2730;51.512;7.504;2024-02-28T05:29:07;1.80;35.60
5415;DHT22;2730;51.512;7.504;2024-02-28T05:31:35;1.80;35.30
5415;DHT22;2730;51.512;7.504;2024-02-28T05:34:04;1.80;36.10
5415;DHT22;2730;51.512;7.504;2024-02-28T05:36:31;1.80;34.80
5415;DHT22;2730;51.512;7.504;2024-02-28T05:38:58;1.90;34.00
5415;DHT22;2730;51.512;7.504;2024-02-28T05:41:26;1.90;32.20
5415;DHT22;2730;51.512;7.504;2024-02-28T05:44:00;2.00;35.30
5415;DHT22;2730;51.512;7.504;2024-02-28T05:46:28;2.00;35.00
5415;DHT22;2730;51.512;7.504;2024-02-28T05:49:06;2.00;32.80
5415;DHT22;2730;51.512;7.504;2024-02-28T05:51:33;2.00;31.90
5415;DHT22;2730;51.512;7.504;2024-02-28T05:54:01;2.00;31.90
5415;DHT22;2730;51.512;7.504;2024-02-28T05:56:29;2.10;31.80
5415;DHT22;2730;51.512;7.504;2024-02-28T05:58:56;2.10;31.70
5415;DHT22;2730;51.512;7.504;2024-02-28T06:01:23;2.10;29.10
5415;DHT22;2730;51.512;7.504;2024-02-28T06:03:50;2.10;25.30
5415;DHT22;2730;51.512;7.504;2024-02-28T06:06:20;2.10;22.50
5415;DHT22;2730;51.512;7.504;2024-02-28T06:08:48;2.10;20.10
5415;DHT22;2730;51.512;7.504;2024-02-28T06:11:15;2.00;18.80
5415;DHT22;2730;51.512;7.504;2024-02-28T06:13:43;2.00;18.60
5415;DHT22;2730;51.512;7.504;2024-02-28T06:16:14;2.00;20.00
5415;DHT22;2730;51.512;7.504;2024-02-28T06:18:41;2.10;19.60
5415;DHT22;2730;51.512;7.504;2024-02-28T06:21:08;2.10;18.80
5415;DHT22;2730;51.512;7.504;2024-02-28T06:23:36;2.10;18.60
5415;DHT22;2730;51.512;7.504;2024-02-28T06:26:03;2.10;18.20
5415;DHT22;2730;51.512;7.504;2024-02-28T06:28:30;2.00;18.30
5415;DHT22;2730;51.512;7.504;2024-02-28T06:30:57;2.00;18.10
5415;DHT22;2730;51.512;7.504;2024-02-28T06:33:24;2.00;18.00
5415;DHT22;2730;51.512;7.504;2024-02-28T06:35:51;2.00;18.50
5415;DHT22;2730;51.512;7.504;2024-02-28T06:38:18;2.10;23.00
5415;DHT22;2730;51.512;7.504;2024-02-28T06:40:46;2.10;22.90
5415;DHT22;2730;51.512;7.504;2024-02-28T06:43:13;2.10;22.00
5415;DHT22;2730;51.512;7.504;2024-02-28T06:45:41;2.20;21.80
5415;DHT22;2730;51.512;7.504;2024-02-28T06:48:08;2.10;17.30
5415;DHT22;2730;51.512;7.504;2024-02-28T06:50:35;2.10;14.90
5415;DHT22;2730;51.512;7.504;2024-02-28T06:53:01;2.10;16.20
5415;DHT22;2730;51.512;7.504;2024-02-28T06:55:29;2.20;18.70
5415;DHT22;2730;51.512;7.504;2024-02-28T06:57:57;2.20;19.80
5415;DHT22;2730;51.512;7.504;2024-02-28T07:00:24;2.20;20.90
5415;DHT22;2730;51.512;7.504;2024-02-28T07:02:51;2.20;18.10
5415;DHT22;2730;51.512;7.504;2024-02-28T07:05:18;2.20;15.00
5415;DHT22;2730;51.512;7.504;2024-02-28T07:07:49;2.20;15.40
5415;DHT22;2730;51.512;7.504;2024-02-28T07:10:17;2.30;15.10
5415;DHT22;2730;51.512;7.504;2024-02-28T07:12:44;2.30;11.40
5415;DHT22;2730;51.512;7.504;2024-02-28T07:15:14;2.30;10.40
5415;DHT22;2730;51.512;7.504;2024-02-28T07:17:40;2.30;8.30
5415;DHT22;2730;51.512;7.504;2024-02-28T07:20:08;2.30;5.90
5415;DHT22;2730;51.512;7.504;2024-02-28T07:22:35;2.40;4.70
5415;DHT22;2730;51.512;7.504;2024-02-28T07:25:04;2.40;2.80
5415;DHT22;2730;51.512;7.504;2024-02-28T07:27:31;2.50;1.00
5415;DHT22;2730;51.512;7.504;2024-02-28T07:30:02;2.50;1.00
5415;DHT22;2730;51.512;7.504;2024-02-28T07:32:31;2.60;1.00
5415;DHT22;2730;51.512;7.504;2024-02-28T07:35:04;2.70;1.00
5415;DHT22;2730;51.512;7.504;2024-02-28T07:37:30;2.80;1.00
5415;DHT22;2730;51.512;7.504;2024-02-28T07:39:57;2.90;1.00
5415;DHT22;2730;51.512;7.504;2024-02-28T07:42:24;3.00;1.00
5415;DHT22;2730;51.512;7.504;2024-02-28T07:44:52;3.00;1.00
5415;DHT22;2730;51.512;7.504;2024-02-28T07:47:23;3.10;1.00
5415;DHT22;2730;51.512;7.504;2024-02-28T07:49:51;3.30;1.00
5415;DHT22;2730;51.512;7.504;2024-02-28T07:52:19;3.50;1.00
5415;DHT22;2730;51.512;7.504;2024-02-28T07:54:49;3.50;1.00
5415;DHT22;2730;51.512;7.504;2024-02-28T07:57:21;3.60;1.00
5415;DHT22;2730;51.512;7.504;2024-02-28T07:59:48;3.60;1.00
5415;DHT22;2730;51.512;7.504;2024-02-28T08:02:15;3.70;1.00
5415;DHT22;2730;51.512;7.504;2024-02-28T08:04:45;3.70;1.00
5415;DHT22;2730;51.512;7.504;2024-02-28T08:07:14;3.80;1.00
5415;DHT22;2730;51.512;7.504;2024-02-28T08:09:42;4.00;1.00
5415;DHT22;2730;51.512;7.504;2024-02-28T08:12:09;4.00;1.00
5415;DHT22;2730;51.512;7.504;2024-02-28T08:14:36;4.10;1.00
5415;DHT22;2730;51.512;7.504;2024-02-28T08:17:05;4.20;1.00
5415;DHT22;2730;51.512;7.504;2024-02-28T08:19:32;4.20;1.00
5415;DHT22;2730;51.512;7.504;2024-02-28T08:22:00;4.30;1.00
5415;DHT22;2730;51.512;7.504;2024-02-28T08:24:28;4.30;1.00
5415;DHT22;2730;51.512;7.504;2024-02-28T08:26:57;4.30;1.00
5415;DHT22;2730;51.512;7.504;2024-02-28T08:29:24;4.40;1.00
5415;DHT22;2730;51.512;7.504;2024-02-28T08:31:58;4.50;1.00
5415;DHT22;2730;51.512;7.504;2024-02-28T08:34:25;4.60;1.00
5415;DHT22;2730;51.512;7.504;2024-02-28T08:36:52;4.60;1.00
5415;DHT22;2730;51.512;7.504;2024-02-28T08:39:18;4.70;1.00
5415;DHT22;2730;51.512;7.504;2024-02-28T08:41:47;4.70;1.00
5415;DHT22;2730;51.512;7.504;2024-02-28T08:44:16;4.70;1.00
5415;DHT22;2730;51.512;7.504;2024-02-28T08:46:46;4.70;1.00
5415;DHT22;2730;51.512;7.504;2024-02-28T08:49:21;4.80;1.00
5415;DHT22;2730;51.512;7.504;2024-02-28T08:51:48;4.90;1.00
5415;DHT22;2730;51.512;7.504;2024-02-28T08:54:15;5.00;1.00
5415;DHT22;2730;51.512;7.504;2024-02-28T08:56:42;5.10;1.00
5415;DHT22;2730;51.512;7.504;2024-02-28T08:59:12;5.10;1.00
5415;DHT22;2730;51.512;7.504;2024-02-28T09:01:38;5.10;1.00
5415;DHT22;2730;51.512;7.504;2024-02-28T09:04:07;5.10;1.00
5415;DHT22;2730;51.512;7.504;2024-02-28T09:06:33;5.10;1.00
5415;DHT22;2730;51.512;7.504;2024-02-28T09:09:03;5.30;1.00
5415;DHT22;2730;51.512;7.504;2024-02-28T09:11:30;5.40;1.00
5415;DHT22;2730;51.512;7.504;2024-02-28T09:13:58;5.40;99.90
5415;DHT22;2730;51.512;7.504;2024-02-28T09:16:27;5.40;99.90
5415;DHT22;2730;51.512;7.504;2024-02-28T09:18:54;5.40;1.00
5415;DHT22;2730;51.512;7.504;2024-02-28T09:21:20;5.60;1.00
5415;DHT22;2730;51.512;7.504;2024-02-28T09:23:49;5.70;99.90
5415;DHT22;2730;51.512;7.504;2024-02-28T09:26:16;5.80;99.90
5415;DHT22;2730;51.512;7.504;2024-02-28T09:28:43;5.80;99.90
5415;DHT22;2730;51.512;7.504;2024-02-28T09:31:10;6.00;99.90
5415;DHT22;2730;51.512;7.504;2024-02-28T09:33:39;6.10;99.90
5415;DHT22;2730;51.512;7.504;2024-02-28T09:36:15;6.10;99.90
5415;DHT22;2730;51.512;7.504;2024-02-28T09:38:42;6.20;99.90
5415;DHT22;2730;51.512;7.504;2024-02-28T09:41:14;6.30;99.90
5415;DHT22;2730;51.512;7.504;2024-02-28T09:43:46;6.20;25.20
5415;DHT22;2730;51.512;7.504;2024-02-28T09:46:14;6.40;28.20
5415;DHT22;2730;51.512;7.504;2024-02-28T09:48:43;6.30;1.00
5415;DHT22;2730;51.512;7.504;2024-02-28T09:51:11;6.50;1.00
5415;DHT22;2730;51.512;7.504;2024-02-28T09:53:39;6.60;1.00
5415;DHT22;2730;51.512;7.504;2024-02-28T09:56:06;6.70;1.00
5415;DHT22;2730;51.512;7.504;2024-02-28T09:58:36;6.80;1.00
5415;DHT22;2730;51.512;7.504;2024-02-28T10:01:08;7.00;1.00
5415;DHT22;2730;51.512;7.504;2024-02-28T10:03:38;7.10;99.90
5415;DHT22;2730;51.512;7.504;2024-02-28T10:06:08;7.10;99.90
5415;DHT22;2730;51.512;7.504;2024-02-28T10:08:39;7.30;99.90
5415;DHT22;2730;51.512;7.504;2024-02-28T10:11:05;7.30;99.90
5415;DHT22;2730;51.512;7.504;2024-02-28T10:13:36;7.10;1.00
5415;DHT22;2730;51.512;7.504;2024-02-28T10:16:06;7.10;99.90
5415;DHT22;2730;51.512;7.504;2024-02-28T10:18:32;7.40;99.90
5415;DHT22;2730;51.512;7.504;2024-02-28T10:21:00;7.80;1.00
5415;DHT22;2730;51.512;7.504;2024-02-28T10:23:28;8.00;1.00
5415;DHT22;2730;51.512;7.504;2024-02-28T10:25:57;8.10;99.90
5415;DHT22;2730;51.512;7.504;2024-02-28T10:28:23;8.30;1.00
5415;DHT22;2730;51.512;7.504;2024-02-28T10:30:54;8.50;1.00
5415;DHT22;2730;51.512;7.504;2024-02-28T10:33:21;8.80;1.00
5415;DHT22;2730;51.512;7.504;2024-02-28T10:35:51;9.40;1.00
5415;DHT22;2730;51.512;7.504;2024-02-28T10:38:18;10.20;1.00
5415;DHT22;2730;51.512;7.504;2024-02-28T10:40:48;10.60;1.00
5415;DHT22;2730;51.512;7.504;2024-02-28T10:43:16;11.00;28.40
5415;DHT22;2730;51.512;7.504;2024-02-28T10:45:43;11.10;1.00
5415;DHT22;2730;51.512;7.504;2024-02-28T10:48:14;11.40;1.00
5415;DHT22;2730;51.512;7.504;2024-02-28T10:50:40;11.30;1.00
5415;DHT22;2730;51.512;7.504;2024-02-28T10:53:13;11.00;1.00
5415;DHT22;2730;51.512;7.504;2024-02-28T10:55:41;10.90;25.50
5415;DHT22;2730;51.512;7.504;2024-02-28T10:58:11;10.80;22.10
5415;DHT22;2730;51.512;7.504;2024-02-28T11:00:41;10.60;99.90
5415;DHT22;2730;51.512;7.504;2024-02-28T11:03:10;10.80;46.10
5415;DHT22;2730;51.512;7.504;2024-02-28T11:05:37;10.70;71.50
5415;DHT22;2730;51.512;7.504;2024-02-28T11:08:08;10.60;99.90
5415;DHT22;2730;51.512;7.504;2024-02-28T11:10:36;11.10;47.20
5415;DHT22;2730;51.512;7.504;2024-02-28T11:13:07;10.90;1.00
5415;DHT22;2730;51.512;7.504;2024-02-28T11:15:37;10.70;29.40
5415;DHT22;2730;51.512;7.504;2024-02-28T11:18:08;10.70;1.00
5415;DHT22;2730;51.512;7.504;2024-02-28T11:20:36;10.50;13.30
5415;DHT22;2730;51.512;7.504;2024-02-28T11:23:06;10.30;23.10
5415;DHT22;2730;51.512;7.504;2024-02-28T11:25:32;9.90;99.90
5415;DHT22;2730;51.512;7.504;2024-02-28T11:27:59;9.70;99.90
5415;DHT22;2730;51.512;7.504;2024-02-28T11:30:28;9.50;99.90
5415;DHT22;2730;51.512;7.504;2024-02-28T11:33:00;9.50;99.90
5415;DHT22;2730;51.512;7.504;2024-02-28T11:35:29;9.60;99.90
5415;DHT22;2730;51.512;7.504;2024-02-28T11:37:57;9.30;99.90
5415;DHT22;2730;51.512;7.504;2024-02-28T11:40:24;9.40;99.90
5415;DHT22;2730;51.512;7.504;2024-02-28T11:42:54;9.60;99.90
5415;DHT22;2730;51.512;7.504;2024-02-28T11:45:24;9.20;99.90
5415;DHT22;2730;51.512;7.504;2024-02-28T11:47:56;9.30;1.00
5415;DHT22;2730;51.512;7.504;2024-02-28T11:50:23;9.30;99.90
5415;DHT22;2730;51.512;7.504;2024-02-28T11:52:51;9.40;99.90
5415;DHT22;2730;51.512;7.504;2024-02-28T11:55:18;9.40;1.00
5415;DHT22;2730;51.512;7.504;2024-02-28T11:57:45;9.10;1.00
5415;DHT22;2730;51.512;7.504;2024-02-28T12:00:13;9.10;1.00
5415;DHT22;2730;51.512;7.504;2024-02-28T12:02:40;9.00;1.00
5415;DHT22;2730;51.512;7.504;2024-02-28T12:05:08;9.30;1.00
5415;DHT22;2730;51.512;7.504;2024-02-28T12:07:36;9.30;99.90
5415;DHT22;2730;51.512;7.504;2024-02-28T12:10:10;9.50;99.90
5415;DHT22;2730;51.512;7.504;2024-02-28T12:12:39;9.60;99.90
5415;DHT22;2730;51.512;7.504;2024-02-28T12:15:08;9.50;99.90
5415;DHT22;2730;51.512;7.504;2024-02-28T12:17:36;9.30;99.90
5415;DHT22;2730;51.512;7.504;2024-02-28T12:20:04;9.10;1.00
5415;DHT22;2730;51.512;7.504;2024-02-28T12:22:35;9.10;1.00
5415;DHT22;2730;51.512;7.504;2024-02-28T12:25:02;9.10;99.90
5415;DHT22;2730;51.512;7.504;2024-02-28T12:27:30;9.20;99.90
5415;DHT22;2730;51.512;7.504;2024-02-28T12:29:57;9.50;99.90
5415;DHT22;2730;51.512;7.504;2024-02-28T12:32:24;9.60;99.90
5415;DHT22;2730;51.512;7.504;2024-02-28T12:34:53;9.60;42.00
5415;DHT22;2730;51.512;7.504;2024-02-28T12:37:20;9.60;46.50
5415;DHT22;2730;51.512;7.504;2024-02-28T12:39:48;9.70;46.20
5415;DHT22;2730;51.512;7.504;2024-02-28T12:42:16;9.80;64.20
5415;DHT22;2730;51.512;7.504;2024-02-28T12:44:43;9.90;1.00
5415;DHT22;2730;51.512;7.504;2024-02-28T12:47:11;9.80;1.00
5415;DHT22;2730;51.512;7.504;2024-02-28T12:49:38;9.90;1.00
5415;DHT22;2730;51.512;7.504;2024-02-28T12:52:05;9.80;1.00
5415;DHT22;2730;51.512;7.504;2024-02-28T12:54:32;9.80;1.00
5415;DHT22;2730;51.512;7.504;2024-02-28T12:57:05;9.70;1.00
5415;DHT22;2730;51.512;7.504;2024-02-28T12:59:34;9.70;1.00
5415;DHT22;2730;51.512;7.504;2024-02-28T13:02:04;9.70;1.00
5415;DHT22;2730;51.512;7.504;2024-02-28T13:04:32;9.80;1.00
5415;DHT22;2730;51.512;7.504;2024-02-28T13:06:59;9.90;1.00
5415;DHT22;2730;51.512;7.504;2024-02-28T13:09:26;9.90;1.00
5415;DHT22;2730;51.512;7.504;2024-02-28T13:11:52;10.00;1.00
5415;DHT22;2730;51.512;7.504;2024-02-28T13:14:21;9.90;1.00
5415;DHT22;2730;51.512;7.504;2024-02-28T13:16:47;10.00;1.00
5415;DHT22;2730;51.512;7.504;2024-02-28T13:19:16;10.00;1.00
5415;DHT22;2730;51.512;7.504;2024-02-28T13:21:44;9.90;1.00
5415;DHT22;2730;51.512;7.504;2024-02-28T13:24:12;10.00;1.00
5415;DHT22;2730;51.512;7.504;2024-02-28T13:26:40;9.90;1.00
5415;DHT22;2730;51.512;7.504;2024-02-28T13:29:12;10.00;1.00
5415;DHT22;2730;51.512;7.504;2024-02-28T13:31:42;10.20;1.00
5415;DHT22;2730;51.512;7.504;2024-02-28T13:34:12;10.30;1.00
5415;DHT22;2730;51.512;7.504;2024-02-28T13:36:45;10.30;1.00
5415;DHT22;2730;51.512;7.504;2024-02-28T13:39:12;10.30;1.00
5415;DHT22;2730;51.512;7.504;2024-02-28T13:41:39;10.30;1.00
5415;DHT22;2730;51.512;7.504;2024-02-28T13:44:10;10.30;1.00
5415;DHT22;2730;51.512;7.504;2024-02-28T13:46:37;10.40;1.00
5415;DHT22;2730;51.512;7.504;2024-02-28T13:49:09;10.50;1.00
5415;DHT22;2730;51.512;7.504;2024-02-28T13:51:36;10.50;99.90
5415;DHT22;2730;51.512;7.504;2024-02-28T13:54:03;10.50;99.90
5415;DHT22;2730;51.512;7.504;2024-02-28T13:56:31;10.50;99.90
5415;DHT22;2730;51.512;7.504;2024-02-28T13:58:58;10.50;99.90
5415;DHT22;2730;51.512;7.504;2024-02-28T14:01:25;10.40;99.90
5415;DHT22;2730;51.512;7.504;2024-02-28T14:03:52;10.20;99.90
5415;DHT22;2730;51.512;7.504;2024-02-28T14:06:20;10.20;99.90
5415;DHT22;2730;51.512;7.504;2024-02-28T14:08:47;10.30;99.90
5415;DHT22;2730;51.512;7.504;2024-02-28T14:11:17;10.40;99.90
5415;DHT22;2730;51.512;7.504;2024-02-28T14:13:43;10.50;99.90
5415;DHT22;2730;51.512;7.504;2024-02-28T14:16:11;10.50;99.90
5415;DHT22;2730;51.512;7.504;2024-02-28T14:18:38;10.60;99.90
5415;DHT22;2730;51.512;7.504;2024-02-28T14:21:05;10.60;99.90
5415;DHT22;2730;51.512;7.504;2024-02-28T14:23:33;10.70;99.90
5415;DHT22;2730;51.512;7.504;2024-02-28T14:26:00;10.40;99.90
5415;DHT22;2730;51.512;7.504;2024-02-28T14:28:29;10.30;99.90
5415;DHT22;2730;51.512;7.504;2024-02-28T14:30:56;10.30;99.90
5415;DHT22;2730;51.512;7.504;2024-02-28T14:33:23;10.50;99.90
5415;DHT22;2730;51.512;7.504;2024-02-28T14:35:50;10.60;99.90
5415;DHT22;2730;51.512;7.504;2024-02-28T14:38:17;10.50;99.90
5415;DHT22;2730;51.512;7.504;2024-02-28T14:40:45;10.30;99.90
5415;DHT22;2730;51.512;7.504;2024-02-28T14:43:15;10.10;99.90
5415;DHT22;2730;51.512;7.504;2024-02-28T14:45:42;10.20;99.90
5415;DHT22;2730;51.512;7.504;2024-02-28T14:48:09;10.20;99.90
5415;DHT22;2730;51.512;7.504;2024-02-28T14:50:36;10.00;99.90
5415;DHT22;2730;51.512;7.504;2024-02-28T14:53:03;10.00;1.00
5415;DHT22;2730;51.512;7.504;2024-02-28T14:55:30;10.00;1.00
5415;DHT22;2730;51.512;7.504;2024-02-28T14:57:58;10.10;1.00
5415;DHT22;2730;51.512;7.504;2024-02-28T15:00:28;10.20;1.00
5415;DHT22;2730;51.512;7.504;2024-02-28T15:02:57;10.00;1.00
5415;DHT22;2730;51.512;7.504;2024-02-28T15:05:24;9.90;1.00
5415;DHT22;2730;51.512;7.504;2024-02-28T15:07:51;9.70;1.00
5415;DHT22;2730;51.512;7.504;2024-02-28T15:10:17;9.70;1.00
5415;DHT22;2730;51.512;7.504;2024-02-28T15:12:45;9.80;1.00
5415;DHT22;2730;51.512;7.504;2024-02-28T15:15:13;9.70;1.00
5415;DHT22;2730;51.512;7.504;2024-02-28T15:17:40;9.70;1.00
5415;DHT22;2730;51.512;7.504;2024-02-28T15:20:10;9.80;1.00
5415;DHT22;2730;51.512;7.504;2024-02-28T15:22:37;9.90;1.00
5415;DHT22;2730;51.512;7.504;2024-02-28T15:25:06;10.10;99.90
5415;DHT22;2730;51.512;7.504;2024-02-28T15:27:34;10.00;99.90
5415;DHT22;2730;51.512;7.504;2024-02-28T15:30:01;9.90;1.00
5415;DHT22;2730;51.512;7.504;2024-02-28T15:32:31;9.80;1.00
5415;DHT22;2730;51.512;7.504;2024-02-28T15:34:59;9.80;1.00
5415;DHT22;2730;51.512;7.504;2024-02-28T15:37:25;9.80;1.00
5415;DHT22;2730;51.512;7.504;2024-02-28T15:39:54;9.70;1.00
5415;DHT22;2730;51.512;7.504;2024-02-28T15:42:21;9.60;1.00
5415;DHT22;2730;51.512;7.504;2024-02-28T15:44:48;9.60;1.00
5415;DHT22;2730;51.512;7.504;2024-02-28T15:47:14;9.50;1.00
5415;DHT22;2730;51.512;7.504;2024-02-28T15:49:43;9.50;1.00
5415;DHT22;2730;51.512;7.504;2024-02-28T15:52:10;9.40;1.00
5415;DHT22;2730;51.512;7.504;2024-02-28T15:54:37;9.40;1.00
5415;DHT22;2730;51.512;7.504;2024-02-28T15:57:07;9.30;1.00
5415;DHT22;2730;51.512;7.504;2024-02-28T15:59:33;9.20;1.00
5415;DHT22;2730;51.512;7.504;2024-02-28T16:02:00;9.20;1.00
5415;DHT22;2730;51.512;7.504;2024-02-28T16:04:29;9.20;1.00
5415;DHT22;2730;51.512;7.504;2024-02-28T16:06:58;9.10;1.00
5415;DHT22;2730;51.512;7.504;2024-02-28T16:09:26;9.00;1.00
5415;DHT22;2730;51.512;7.504;2024-02-28T16:11:53;9.00;1.00
5415;DHT22;2730;51.512;7.504;2024-02-28T16:14:20;8.90;1.00
5415;DHT22;2730;51.512;7.504;2024-02-28T16:16:48;8.90;1.00
5415;DHT22;2730;51.512;7.504;2024-02-28T16:19:15;8.80;5.00
5415;DHT22;2730;51.512;7.504;2024-02-28T16:21:42;8.80;23.60
5415;DHT22;2730;51.512;7.504;2024-02-28T16:24:15;8.80;47.80
5415;DHT22;2730;51.512;7.504;2024-02-28T16:26:43;8.80;61.10
5415;DHT22;2730;51.512;7.504;2024-02-28T16:29:10;8.80;10.90